Terminal Aerodrome Forecast
Issued by NWS

Home | Current Version | Previous Version | Text Only | Print | Product List | Glossary On
Versions: 1 2 3 4 5 6 7 8 9 10 11 12 13 14 15 16 17
000
FTUS43 KEAX 270100 AAA
TAFMKC
TAF AMD
KMKC 270115Z 2701/2724 33008KT P6SM OVC018
      TEMPO 2701/2703 32012G19KT
     FM271200 VRB04KT P6SM BKN080
     FM272000 13005KT P6SM SCT250=

USA.gov is the U.S. government's official web portal to all federal, state and local government web resources and services.